createdAt,value
2023-02-11T00:01:35.037Z,9.73
2023-02-11T00:04:06.918Z,13.60
2023-02-11T00:06:38.823Z,11.07
2023-02-11T00:09:10.998Z,11.93
2023-02-11T00:11:42.019Z,9.98
2023-02-11T00:14:15.422Z,9.77
2023-02-11T00:16:46.092Z,9.52
2023-02-11T00:19:16.546Z,13.40
2023-02-11T00:21:47.081Z,11.23
2023-02-11T00:24:19.037Z,11.00
2023-02-11T00:26:49.463Z,13.52
2023-02-11T00:29:20.002Z,11.10
2023-02-11T00:31:50.759Z,18.13
2023-02-11T00:34:21.299Z,16.05
2023-02-11T00:36:52.796Z,15.85
2023-02-11T00:39:24.914Z,12.15
2023-02-11T00:41:55.446Z,12.13
2023-02-11T00:44:26.203Z,13.15
2023-02-11T00:46:56.717Z,15.10
2023-02-11T00:49:27.707Z,14.88
2023-02-11T00:51:58.145Z,15.30
2023-02-11T00:54:30.217Z,13.27
2023-02-11T00:57:00.719Z,12.00
2023-02-11T00:59:31.217Z,13.77
2023-02-11T01:02:01.705Z,12.05
2023-02-11T01:04:32.205Z,18.13
2023-02-11T01:07:02.663Z,14.32
2023-02-11T01:09:34.753Z,19.35
2023-02-11T01:12:05.130Z,9.23
2023-02-11T01:14:35.592Z,14.05
2023-02-11T01:17:07.999Z,12.50
2023-02-11T01:19:39.838Z,13.18
2023-02-11T01:22:10.356Z,12.68
2023-02-11T01:24:42.439Z,10.55
2023-02-11T01:27:12.847Z,12.13
2023-02-11T01:29:51.602Z,13.88
2023-02-11T01:32:22.406Z,14.85
2023-02-11T01:34:53.006Z,15.18
2023-02-11T01:37:23.624Z,12.75
2023-02-11T01:39:58.800Z,13.15
2023-02-11T01:42:29.610Z,14.90
2023-02-11T01:45:01.311Z,12.30
2023-02-11T01:47:31.948Z,17.58
2023-02-11T01:50:04.906Z,11.77
2023-02-11T01:52:39.996Z,10.63
2023-02-11T01:55:32.436Z,13.85
2023-02-11T01:58:07.758Z,13.15
2023-02-11T02:00:41.299Z,12.55
2023-02-11T02:03:15.518Z,13.85
2023-02-11T02:05:50.162Z,14.60
2023-02-11T02:08:26.080Z,13.00
2023-02-11T02:11:01.548Z,15.85
2023-02-11T02:13:35.033Z,10.27
2023-02-11T02:16:09.897Z,12.43
2023-02-11T02:18:50.695Z,10.65
2023-02-11T02:21:44.388Z,13.60
2023-02-11T02:24:47.228Z,10.45
2023-02-11T02:27:40.386Z,9.13
2023-02-11T02:30:52.796Z,9.55
2023-02-11T02:33:40.322Z,9.60
2023-02-11T02:36:20.707Z,7.95
2023-02-11T02:38:57.482Z,9.73
2023-02-11T02:41:32.837Z,9.93
2023-02-11T02:44:03.870Z,10.85
2023-02-11T02:46:36.520Z,10.70
2023-02-11T02:49:15.656Z,10.07
2023-02-11T02:52:26.834Z,7.25
2023-02-11T02:55:19.472Z,8.45
2023-02-11T02:58:09.018Z,7.80
2023-02-11T03:00:47.560Z,9.52
2023-02-11T03:03:25.975Z,7.03
2023-02-11T03:06:04.444Z,11.80
2023-02-11T03:08:41.773Z,7.45
2023-02-11T03:11:14.528Z,14.93
2023-02-11T03:13:46.398Z,17.88
2023-02-11T03:16:25.356Z,9.40
2023-02-11T03:19:02.219Z,9.48
2023-02-11T03:21:36.532Z,8.90
2023-02-11T03:24:13.385Z,6.57
2023-02-11T03:26:46.958Z,4.72
2023-02-11T03:29:23.877Z,4.43
2023-02-11T03:32:02.581Z,4.55
2023-02-11T03:34:38.637Z,5.13
2023-02-11T03:37:16.200Z,15.70
2023-02-11T03:39:51.581Z,15.50
2023-02-11T03:42:22.927Z,6.78
2023-02-11T03:44:56.571Z,8.95
2023-02-11T03:47:30.899Z,7.65
2023-02-11T03:50:05.571Z,5.70
2023-02-11T03:52:39.630Z,7.35
2023-02-11T03:55:16.076Z,8.60
2023-02-11T03:57:46.797Z,9.23
2023-02-11T04:00:17.978Z,13.30
2023-02-11T04:02:49.998Z,12.18
2023-02-11T04:05:20.699Z,9.55
2023-02-11T04:07:52.884Z,11.65
2023-02-11T04:10:23.624Z,11.45
2023-02-11T04:12:54.273Z,10.82
2023-02-11T04:15:24.964Z,9.10
2023-02-11T04:17:55.714Z,8.40
2023-02-11T04:20:26.201Z,9.30
2023-02-11T04:22:58.404Z,7.40
2023-02-11T04:25:28.820Z,10.32
2023-02-11T04:27:59.294Z,8.43
2023-02-11T04:30:29.725Z,11.27
2023-02-11T04:33:01.289Z,14.13
2023-02-11T04:35:31.796Z,11.88
2023-02-11T04:38:03.733Z,16.40
2023-02-11T04:40:34.308Z,21.38
2023-02-11T04:43:05.228Z,15.82
2023-02-11T04:45:36.128Z,22.75
2023-02-11T04:48:07.712Z,13.90
2023-02-11T04:50:38.182Z,17.52
2023-02-11T04:53:10.571Z,25.05
2023-02-11T04:55:41.076Z,49.92
2023-02-11T04:58:12.330Z,28.75
2023-02-11T05:00:42.815Z,32.47
2023-02-11T05:03:13.549Z,59.28
2023-02-11T05:05:44.960Z,22.35
2023-02-11T05:08:17.046Z,37.05
2023-02-11T05:10:50.084Z,23.00
2023-02-11T05:13:20.556Z,25.00
2023-02-11T05:15:51.405Z,17.70
2023-02-11T05:18:22.064Z,17.02
2023-02-11T05:20:52.475Z,22.30
2023-02-11T05:23:24.683Z,13.57
2023-02-11T05:25:55.203Z,16.02
2023-02-11T05:28:25.660Z,11.57
2023-02-11T05:30:56.188Z,10.05
2023-02-11T05:33:27.149Z,10.10
2023-02-11T05:36:02.490Z,10.45
2023-02-11T05:38:34.994Z,10.95
2023-02-11T05:41:06.227Z,11.05
2023-02-11T05:43:37.524Z,14.98
2023-02-11T05:46:08.256Z,29.17
2023-02-11T05:48:38.728Z,23.13
2023-02-11T05:51:09.325Z,13.50
2023-02-11T05:53:41.411Z,15.63
2023-02-11T05:56:12.454Z,11.38
2023-02-11T05:58:42.985Z,9.77
2023-02-11T06:01:13.481Z,13.30
2023-02-11T06:03:44.012Z,15.02
2023-02-11T06:06:14.995Z,10.93
2023-02-11T06:08:47.218Z,20.83
2023-02-11T06:11:18.720Z,12.32
2023-02-11T06:13:49.123Z,11.90
2023-02-11T06:16:19.525Z,22.80
2023-02-11T06:18:50.082Z,15.07
2023-02-11T06:21:20.514Z,12.15
2023-02-11T06:23:52.628Z,13.63
2023-02-11T06:26:25.242Z,13.90
2023-02-11T06:28:55.698Z,10.52
2023-02-11T06:31:26.261Z,11.35
2023-02-11T06:33:57.404Z,10.77
2023-02-11T06:36:27.892Z,14.23
2023-02-11T06:38:59.935Z,9.73
2023-02-11T06:41:30.655Z,11.02
2023-02-11T06:44:04.050Z,14.15
2023-02-11T06:46:34.542Z,14.50
2023-02-11T06:49:05.072Z,15.05
2023-02-11T06:51:35.561Z,25.73
2023-02-11T06:54:09.176Z,10.32
2023-02-11T06:56:42.348Z,15.57
2023-02-11T06:59:17.752Z,15.25
2023-02-11T07:01:48.346Z,13.70
2023-02-11T07:04:18.823Z,11.77
2023-02-11T07:06:49.261Z,16.38
2023-02-11T07:09:24.008Z,7.45
2023-02-11T07:11:54.693Z,15.98
2023-02-11T07:14:25.228Z,15.65
2023-02-11T07:16:55.773Z,9.10
2023-02-11T07:19:26.470Z,10.98
2023-02-11T07:21:56.875Z,15.02
2023-02-11T07:24:28.968Z,19.38
2023-02-11T07:26:59.363Z,15.52
2023-02-11T07:29:29.858Z,14.82
2023-02-11T07:32:00.458Z,23.52
2023-02-11T07:34:30.994Z,14.38
2023-02-11T07:37:01.470Z,8.18
2023-02-11T07:39:33.701Z,9.82
2023-02-11T07:42:04.301Z,8.90
2023-02-11T07:44:35.933Z,6.13
2023-02-11T07:47:06.719Z,10.65
2023-02-11T07:49:37.312Z,5.90
2023-02-11T07:52:07.952Z,7.38
2023-02-11T07:54:40.051Z,11.02
2023-02-11T07:57:10.551Z,9.88
2023-02-11T07:59:40.993Z,6.95
2023-02-11T08:02:17.550Z,10.45
2023-02-11T08:04:49.807Z,6.57
2023-02-11T08:11:13.022Z,10.38
2023-02-11T08:13:44.023Z,5.95
2023-02-11T08:16:21.923Z,8.48
2023-02-11T08:18:53.850Z,6.80
2023-02-11T08:24:51.413Z,11.65
2023-02-11T08:27:30.613Z,9.75
2023-02-11T08:30:01.807Z,14.20
2023-02-11T08:32:32.372Z,6.70
2023-02-11T08:35:10.064Z,10.40
2023-02-11T08:37:40.694Z,9.25
2023-02-11T08:40:11.934Z,6.95
2023-02-11T08:42:44.707Z,15.07
2023-02-11T08:45:15.183Z,9.77
2023-02-11T08:47:45.753Z,8.05
2023-02-11T08:50:16.246Z,9.95
2023-02-11T08:52:49.540Z,8.65
2023-02-11T08:55:20.222Z,9.88
2023-02-11T08:57:54.915Z,9.07
2023-02-11T09:00:37.175Z,14.38
2023-02-11T09:03:07.726Z,10.68
2023-02-11T09:05:41.656Z,15.88
2023-02-11T09:08:15.240Z,19.52
2023-02-11T09:10:48.932Z,17.42
2023-02-11T09:13:26.199Z,15.57
2023-02-11T09:16:03.270Z,17.02
2023-02-11T09:18:37.454Z,9.27
2023-02-11T09:21:09.473Z,9.85
2023-02-11T09:23:39.970Z,15.77
2023-02-11T09:26:16.705Z,22.38
2023-02-11T09:28:49.484Z,71.25
2023-02-11T09:31:23.170Z,69.85
2023-02-11T09:33:58.923Z,200.02
2023-02-11T09:36:31.414Z,53.35
2023-02-11T09:39:03.639Z,37.85
2023-02-11T09:41:51.976Z,17.10
2023-02-11T09:44:27.765Z,16.20
2023-02-11T09:47:03.630Z,10.55
2023-02-11T09:49:42.458Z,8.40
2023-02-11T09:52:22.047Z,18.15
2023-02-11T09:55:01.099Z,23.92
2023-02-11T09:57:36.678Z,17.50
2023-02-11T10:00:23.946Z,17.50
2023-02-11T10:03:23.021Z,40.80
2023-02-11T10:06:26.826Z,19.88
2023-02-11T10:09:09.384Z,10.27
2023-02-11T10:11:52.590Z,6.70
2023-02-11T10:14:36.990Z,9.35
2023-02-11T10:17:23.495Z,6.15
2023-02-11T10:20:09.001Z,6.70
2023-02-11T10:22:46.186Z,10.07
2023-02-11T10:25:23.748Z,10.27
2023-02-11T10:27:57.311Z,8.43
2023-02-11T10:30:34.209Z,10.43
2023-02-11T10:33:15.710Z,8.20
2023-02-11T10:35:47.320Z,8.95
2023-02-11T10:38:18.907Z,5.80
2023-02-11T10:40:50.718Z,10.32
2023-02-11T10:43:26.352Z,73.03
2023-02-11T10:45:59.880Z,190.32
2023-02-11T10:48:44.547Z,46.83
2023-02-11T10:51:23.168Z,11.45
2023-02-11T10:54:14.526Z,6.50
2023-02-11T10:56:51.313Z,8.90
2023-02-11T10:59:29.829Z,12.73
2023-02-11T11:02:04.160Z,17.50
2023-02-11T11:04:47.237Z,9.18
2023-02-11T11:07:25.502Z,8.45
2023-02-11T11:10:00.659Z,11.43
2023-02-11T11:12:35.911Z,14.18
2023-02-11T11:15:23.314Z,21.85
2023-02-11T11:18:04.108Z,11.32
2023-02-11T11:20:58.119Z,10.25
2023-02-11T11:23:31.193Z,7.07
2023-02-11T11:26:10.126Z,7.05
2023-02-11T11:28:45.542Z,11.30
2023-02-11T11:31:20.999Z,11.85
2023-02-11T11:33:54.614Z,7.43
2023-02-11T11:36:37.128Z,8.38
2023-02-11T11:39:24.796Z,21.20
2023-02-11T11:42:00.887Z,66.10
2023-02-11T11:44:36.838Z,121.45
2023-02-11T11:47:43.712Z,41.10
2023-02-11T11:50:31.048Z,19.50
2023-02-11T11:53:10.865Z,8.00
2023-02-11T11:55:47.318Z,14.13
2023-02-11T11:58:21.704Z,36.22
2023-02-11T12:01:04.278Z,12.43
2023-02-11T12:04:04.303Z,10.48
2023-02-11T12:09:26.194Z,9.93
2023-02-11T12:12:15.497Z,29.25
2023-02-11T12:14:58.873Z,67.20
2023-02-11T12:17:53.703Z,54.17
2023-02-11T12:20:35.115Z,22.90
2023-02-11T12:23:36.228Z,15.63
2023-02-11T12:26:18.153Z,16.25
2023-02-11T12:29:06.734Z,32.33
2023-02-11T12:32:01.705Z,9.73
2023-02-11T12:35:07.621Z,17.52
2023-02-11T12:37:56.448Z,9.63
2023-02-11T12:40:35.557Z,11.45
2023-02-11T12:43:23.181Z,10.48
2023-02-11T12:46:09.374Z,19.33
2023-02-11T12:49:05.883Z,23.40
2023-02-11T12:51:48.312Z,20.08
2023-02-11T12:54:28.415Z,18.58
2023-02-11T12:59:50.818Z,40.55
2023-02-11T13:02:33.193Z,44.08
2023-02-11T13:05:33.876Z,72.10
2023-02-11T13:08:12.390Z,97.95
2023-02-11T13:10:47.187Z,116.50
2023-02-11T13:13:24.010Z,119.82
2023-02-11T13:16:01.970Z,107.03
2023-02-11T13:18:50.521Z,78.35
2023-02-11T13:21:35.998Z,47.28
2023-02-11T13:24:18.589Z,26.15
2023-02-11T13:26:57.165Z,27.38
2023-02-11T13:29:40.157Z,27.73
2023-02-11T13:32:17.105Z,32.75
2023-02-11T13:35:06.148Z,30.65
2023-02-11T13:37:41.610Z,27.40
2023-02-11T13:40:27.196Z,31.00
2023-02-11T13:43:05.771Z,21.60
2023-02-11T13:45:43.652Z,21.80
2023-02-11T13:48:25.440Z,20.63
2023-02-11T13:50:59.880Z,19.98
2023-02-11T13:53:32.773Z,16.38
2023-02-11T13:56:12.954Z,14.65
2023-02-11T13:58:52.786Z,14.73
2023-02-11T14:02:05.973Z,11.20
2023-02-11T14:05:07.444Z,10.30
2023-02-11T14:07:55.589Z,9.52
2023-02-11T14:10:54.618Z,9.07
2023-02-11T14:13:28.915Z,9.65
2023-02-11T14:16:12.331Z,10.52
2023-02-11T14:19:05.387Z,11.40
2023-02-11T14:21:41.468Z,10.00
2023-02-11T14:24:50.107Z,15.57
2023-02-11T14:27:34.809Z,17.02
2023-02-11T14:30:30.398Z,18.15
2023-02-11T14:33:31.154Z,13.65
2023-02-11T14:36:11.620Z,15.57
2023-02-11T14:39:02.233Z,18.00
2023-02-11T14:41:38.942Z,17.52
2023-02-11T14:44:18.020Z,22.92
2023-02-11T14:46:51.002Z,16.98
2023-02-11T14:49:29.979Z,19.73
2023-02-11T14:52:07.282Z,10.88
2023-02-11T14:54:40.924Z,10.82
2023-02-11T14:57:17.387Z,15.80
2023-02-11T15:00:00.172Z,10.55
2023-02-11T15:02:36.826Z,16.33
2023-02-11T15:05:24.930Z,22.20
2023-02-11T15:07:59.081Z,22.60
2023-02-11T15:10:35.965Z,24.52
2023-02-11T15:13:08.394Z,25.63
2023-02-11T15:15:43.601Z,21.83
2023-02-11T15:18:23.912Z,25.65
2023-02-11T15:20:55.723Z,21.08
2023-02-11T15:23:33.073Z,17.80
2023-02-11T15:26:11.180Z,23.73
2023-02-11T15:28:50.198Z,20.48
2023-02-11T15:31:26.524Z,16.30
2023-02-11T15:33:58.602Z,16.00
2023-02-11T15:36:34.278Z,8.45
2023-02-11T15:39:23.714Z,9.43
2023-02-11T15:41:57.134Z,7.93
2023-02-11T15:44:33.355Z,9.65
2023-02-11T15:47:16.985Z,6.32
2023-02-11T15:49:49.405Z,7.07
2023-02-11T15:52:27.811Z,6.93
2023-02-11T15:55:02.569Z,6.38
2023-02-11T15:57:36.616Z,6.38
2023-02-11T16:00:08.986Z,14.32
2023-02-11T16:02:45.872Z,4.07
2023-02-11T16:05:30.334Z,6.22
2023-02-11T16:08:02.074Z,7.57
2023-02-11T16:10:39.583Z,5.85
2023-02-11T16:13:23.152Z,4.68
2023-02-11T16:15:57.721Z,6.95
2023-02-11T16:18:39.383Z,9.93
2023-02-11T16:21:18.212Z,5.85
2023-02-11T16:23:55.870Z,5.32
2023-02-11T16:26:32.915Z,6.22
2023-02-11T16:29:15.638Z,8.35
2023-02-11T16:31:48.040Z,6.78
2023-02-11T16:34:21.227Z,4.85
2023-02-11T16:36:52.919Z,7.85
2023-02-11T16:39:25.076Z,5.05
2023-02-11T16:41:56.667Z,5.88
2023-02-11T16:44:28.943Z,9.82
2023-02-11T16:47:04.301Z,19.83
2023-02-11T16:49:37.669Z,31.05
2023-02-11T16:52:11.506Z,18.33
2023-02-11T16:54:45.137Z,12.68
2023-02-11T16:57:17.483Z,7.30
2023-02-11T16:59:55.908Z,4.53
2023-02-11T17:02:29.296Z,7.38
2023-02-11T17:05:04.791Z,19.80
2023-02-11T17:07:36.216Z,7.18
2023-02-11T17:10:06.998Z,5.47
2023-02-11T17:12:37.697Z,7.35
2023-02-11T17:15:10.654Z,5.68
2023-02-11T17:17:41.258Z,64.85
2023-02-11T17:20:14.523Z,93.18
2023-02-11T17:22:45.248Z,26.38
2023-02-11T17:25:15.972Z,19.00
2023-02-11T17:27:46.744Z,14.73
2023-02-11T17:30:19.442Z,15.57
2023-02-11T17:32:50.050Z,10.13
2023-02-11T17:35:20.750Z,16.17
2023-02-11T17:37:52.006Z,13.95
2023-02-11T17:40:22.844Z,16.15
2023-02-11T17:42:54.004Z,15.07
2023-02-11T17:45:26.303Z,8.07
2023-02-11T17:47:59.879Z,8.55
2023-02-11T17:50:30.550Z,7.57
2023-02-11T17:53:01.744Z,6.82
2023-02-11T17:55:36.280Z,6.25
2023-02-11T17:58:07.032Z,13.60
2023-02-11T18:00:39.405Z,7.88
2023-02-11T18:03:10.559Z,9.52
2023-02-11T18:05:41.456Z,6.60
2023-02-11T18:08:12.092Z,10.18
2023-02-11T18:10:59.104Z,14.02
2023-02-11T18:13:33.510Z,9.50
2023-02-11T18:16:20.470Z,7.55
2023-02-11T18:19:02.548Z,7.22
2023-02-11T18:21:45.133Z,11.45
2023-02-11T18:24:28.822Z,7.43
2023-02-11T18:27:04.998Z,6.43
2023-02-11T18:29:35.986Z,8.23
2023-02-11T18:32:10.407Z,8.90
2023-02-11T18:34:45.123Z,6.78
2023-02-11T18:37:26.065Z,6.65
2023-02-11T18:39:56.808Z,6.32
2023-02-11T18:42:28.807Z,9.10
2023-02-11T18:44:59.311Z,6.95
2023-02-11T18:47:31.600Z,10.00
2023-02-11T18:50:02.141Z,8.57
2023-02-11T18:52:34.886Z,8.95
2023-02-11T18:55:05.453Z,5.95
2023-02-11T18:57:36.128Z,7.68
2023-02-11T19:00:12.333Z,4.50
2023-02-11T19:02:44.428Z,8.00
2023-02-11T19:05:15.035Z,8.85
2023-02-11T19:07:45.616Z,5.72
2023-02-11T19:10:16.252Z,5.63
2023-02-11T19:12:47.404Z,7.70
2023-02-11T19:15:17.988Z,64.20
2023-02-11T19:17:50.193Z,5.88
2023-02-11T19:20:21.032Z,7.25
2023-02-11T19:22:51.786Z,7.95
2023-02-11T19:25:22.560Z,5.40
2023-02-11T19:27:54.016Z,10.43
2023-02-11T19:30:24.714Z,4.75
2023-02-11T19:32:58.511Z,3.83
2023-02-11T19:35:29.027Z,5.07
2023-02-11T19:37:59.587Z,6.28
2023-02-11T19:40:30.176Z,4.90
2023-02-11T19:43:00.674Z,5.13
2023-02-11T19:45:31.290Z,16.85
2023-02-11T19:48:06.259Z,6.53
2023-02-11T19:50:36.798Z,4.88
2023-02-11T19:53:07.364Z,4.40
2023-02-11T19:58:22.098Z,4.25
2023-02-11T20:00:53.129Z,6.90
2023-02-11T20:03:28.321Z,6.53
2023-02-11T20:06:01.845Z,8.55
2023-02-11T20:08:33.947Z,8.27
2023-02-11T20:11:14.914Z,8.65
2023-02-11T20:13:46.950Z,7.43
2023-02-11T20:16:36.838Z,5.93
2023-02-11T20:19:23.869Z,6.75
2023-02-11T20:21:57.957Z,8.55
2023-02-11T20:24:30.764Z,6.07
2023-02-11T20:27:01.271Z,5.13
2023-02-11T20:29:32.725Z,8.57
2023-02-11T20:32:08.739Z,6.43
2023-02-11T20:34:40.904Z,5.63
2023-02-11T20:37:11.366Z,6.03
2023-02-11T20:39:42.858Z,6.25
2023-02-11T20:42:16.158Z,8.15
2023-02-11T20:44:46.678Z,7.13
2023-02-11T20:47:20.101Z,7.72
2023-02-11T20:49:52.897Z,5.72
2023-02-11T20:52:23.419Z,9.93
2023-02-11T20:54:53.896Z,10.65
2023-02-11T20:57:24.439Z,13.90
2023-02-11T20:59:55.190Z,11.65
2023-02-11T21:02:25.638Z,13.63
2023-02-11T21:04:57.656Z,10.90
2023-02-11T21:07:30.020Z,10.68
2023-02-11T21:10:00.634Z,7.97
2023-02-11T21:12:31.041Z,8.50
2023-02-11T21:15:01.556Z,9.73
2023-02-11T21:17:32.071Z,8.55
2023-02-11T21:20:04.022Z,11.00
2023-02-11T21:22:34.527Z,8.50
2023-02-11T21:25:06.896Z,7.68
2023-02-11T21:27:37.383Z,10.65
2023-02-11T21:30:08.681Z,10.10
2023-02-11T21:32:39.039Z,8.77
2023-02-11T21:35:11.769Z,11.07
2023-02-11T21:37:42.256Z,8.13
2023-02-11T21:40:15.666Z,8.38
2023-02-11T21:42:46.185Z,9.02
2023-02-11T21:45:16.581Z,6.68
2023-02-11T21:47:47.023Z,5.72
2023-02-11T21:50:19.349Z,10.27
2023-02-11T21:52:49.784Z,5.43
2023-02-11T21:55:20.536Z,9.82
2023-02-11T21:57:51.092Z,10.88
2023-02-11T22:00:24.389Z,14.93
2023-02-11T22:02:54.785Z,14.32
2023-02-11T22:05:28.060Z,13.68
2023-02-11T22:07:58.620Z,8.73
2023-02-11T22:10:29.105Z,9.88
2023-02-11T22:12:59.576Z,10.70
2023-02-11T22:15:30.109Z,13.98
2023-02-11T22:18:00.496Z,10.27
2023-02-11T22:20:32.609Z,9.68
2023-02-11T22:23:03.561Z,12.70
2023-02-11T22:25:33.966Z,12.90
2023-02-11T22:28:04.422Z,10.23
2023-02-11T22:30:34.966Z,10.45
2023-02-11T22:33:06.505Z,12.57
2023-02-11T22:35:38.517Z,7.97
2023-02-11T22:38:08.888Z,7.78
2023-02-11T22:40:44.322Z,6.38
2023-02-11T22:43:14.819Z,6.53
2023-02-11T22:45:45.301Z,14.68
2023-02-11T22:48:15.855Z,11.80
2023-02-11T22:50:47.834Z,21.88
2023-02-11T22:53:18.233Z,5.60
2023-02-11T22:55:48.822Z,5.22
2023-02-11T22:58:19.665Z,5.57
2023-02-11T23:00:50.133Z,5.93
2023-02-11T23:03:20.613Z,6.35
2023-02-11T23:05:53.249Z,5.80
2023-02-11T23:08:24.080Z,6.80
2023-02-11T23:10:54.660Z,6.68
2023-02-11T23:13:25.256Z,13.88
2023-02-11T23:15:56.013Z,15.82
2023-02-11T23:18:26.668Z,7.40
2023-02-11T23:20:58.777Z,5.55
2023-02-11T23:23:29.244Z,9.05
2023-02-11T23:25:59.780Z,7.35
2023-02-11T23:28:30.771Z,10.55
2023-02-11T23:31:01.373Z,10.32
2023-02-11T23:33:31.869Z,7.45
2023-02-11T23:36:04.233Z,6.25
2023-02-11T23:38:34.859Z,6.88
2023-02-11T23:41:05.631Z,14.23
2023-02-11T23:43:36.175Z,7.15
2023-02-11T23:46:07.062Z,10.88
2023-02-11T23:48:38.514Z,13.68
2023-02-11T23:51:12.060Z,6.97
2023-02-11T23:53:43.185Z,9.85
2023-02-11T23:56:18.256Z,5.30
2023-02-11T23:58:50.735Z,6.38
